sensor_id;sensor_type;location;lat;lon;timestamp;temperature;humidity
47600;DHT22;33323;52.124;6.018;2023-12-22T02:48:48;6.00;99.90
47600;DHT22;33323;52.124;6.018;2023-12-22T02:51:15;6.00;99.90
47600;DHT22;33323;52.124;6.018;2023-12-22T02:53:42;5.90;99.90
47600;DHT22;33323;52.124;6.018;2023-12-22T02:56:10;5.90;99.90
47600;DHT22;33323;52.124;6.018;2023-12-22T02:58:37;5.90;99.90
47600;DHT22;33323;52.124;6.018;2023-12-22T03:01:04;5.90;99.90
47600;DHT22;33323;52.124;6.018;2023-12-22T03:03:31;5.90;99.90
47600;DHT22;33323;52.124;6.018;2023-12-22T03:06:34;5.60;99.90
47600;DHT22;33323;52.124;6.018;2023-12-22T03:09:03;5.40;99.90
47600;DHT22;33323;52.124;6.018;2023-12-22T03:11:31;5.40;99.90
47600;DHT22;33323;52.124;6.018;2023-12-22T03:29:07;5.10;99.90
47600;DHT22;33323;52.124;6.018;2023-12-22T03:34:45;5.10;99.90
47600;DHT22;33323;52.124;6.018;2023-12-22T03:43:28;5.10;99.90
47600;DHT22;33323;52.124;6.018;2023-12-22T05:46:02;5.40;99.90
47600;DHT22;33323;52.124;6.018;2023-12-22T05:48:30;5.40;99.90
47600;DHT22;33323;52.124;6.018;2023-12-22T05:50:57;5.50;99.90
47600;DHT22;33323;52.124;6.018;2023-12-22T05:53:25;5.40;99.90
47600;DHT22;33323;52.124;6.018;2023-12-22T06:40:27;5.40;99.90
47600;DHT22;33323;52.124;6.018;2023-12-22T06:42:55;5.50;99.90
47600;DHT22;33323;52.124;6.018;2023-12-22T06:45:22;5.50;99.90
47600;DHT22;33323;52.124;6.018;2023-12-22T06:53:54;5.60;99.90
47600;DHT22;33323;52.124;6.018;2023-12-22T07:21:42;5.50;99.90
47600;DHT22;33323;52.124;6.018;2023-12-22T07:24:13;5.50;99.90
47600;DHT22;33323;52.124;6.018;2023-12-22T07:26:43;5.60;99.90
47600;DHT22;33323;52.124;6.018;2023-12-22T07:32:12;5.80;99.90
47600;DHT22;33323;52.124;6.018;2023-12-22T07:34:41;5.80;99.90
47600;DHT22;33323;52.124;6.018;2023-12-22T07:43:40;6.00;99.90
47600;DHT22;33323;52.124;6.018;2023-12-22T08:05:09;6.40;99.90
47600;DHT22;33323;52.124;6.018;2023-12-22T08:07:36;6.40;99.90
47600;DHT22;33323;52.124;6.018;2023-12-22T08:10:03;6.40;99.90
47600;DHT22;33323;52.124;6.018;2023-12-22T08:12:31;6.50;99.90
47600;DHT22;33323;52.124;6.018;2023-12-22T08:15:01;6.60;99.90
47600;DHT22;33323;52.124;6.018;2023-12-22T08:20:31;6.80;99.90
47600;DHT22;33323;52.124;6.018;2023-12-22T08:23:04;6.70;99.90
47600;DHT22;33323;52.124;6.018;2023-12-22T08:35:04;6.90;99.90
47600;DHT22;33323;52.124;6.018;2023-12-22T08:37:34;6.90;99.90
47600;DHT22;33323;52.124;6.018;2023-12-22T08:40:02;6.90;99.90
47600;DHT22;33323;52.124;6.018;2023-12-22T08:42:30;6.80;99.90
47600;DHT22;33323;52.124;6.018;2023-12-22T08:44:58;6.90;99.90
47600;DHT22;33323;52.124;6.018;2023-12-22T08:47:25;6.80;99.90
47600;DHT22;33323;52.124;6.018;2023-12-22T08:49:52;6.70;99.90
47600;DHT22;33323;52.124;6.018;2023-12-22T08:52:19;6.80;99.90
47600;DHT22;33323;52.124;6.018;2023-12-22T08:54:46;6.90;99.90
47600;DHT22;33323;52.124;6.018;2023-12-22T08:57:13;6.90;99.90
47600;DHT22;33323;52.124;6.018;2023-12-22T08:59:40;6.80;99.90
47600;DHT22;33323;52.124;6.018;2023-12-22T09:02:08;6.80;99.90
47600;DHT22;33323;52.124;6.018;2023-12-22T09:04:35;6.80;99.90
47600;DHT22;33323;52.124;6.018;2023-12-22T09:07:02;6.80;99.90
47600;DHT22;33323;52.124;6.018;2023-12-22T09:09:29;6.80;99.90
47600;DHT22;33323;52.124;6.018;2023-12-22T09:11:56;6.80;99.90
47600;DHT22;33323;52.124;6.018;2023-12-22T09:14:23;6.80;99.90
47600;DHT22;33323;52.124;6.018;2023-12-22T09:16:50;6.70;99.90
47600;DHT22;33323;52.124;6.018;2023-12-22T09:19:18;6.80;99.90
47600;DHT22;33323;52.124;6.018;2023-12-22T09:21:45;6.70;99.90
47600;DHT22;33323;52.124;6.018;2023-12-22T09:24:12;6.80;99.90
47600;DHT22;33323;52.124;6.018;2023-12-22T09:26:39;6.80;99.90
47600;DHT22;33323;52.124;6.018;2023-12-22T09:29:06;6.90;99.90
47600;DHT22;33323;52.124;6.018;2023-12-22T09:31:34;7.00;99.90
47600;DHT22;33323;52.124;6.018;2023-12-22T09:44:48;7.10;99.90
47600;DHT22;33323;52.124;6.018;2023-12-22T09:50:30;7.60;99.90
47600;DHT22;33323;52.124;6.018;2023-12-22T09:52:57;7.70;99.90
47600;DHT22;33323;52.124;6.018;2023-12-22T09:55:31;7.60;99.90
47600;DHT22;33323;52.124;6.018;2023-12-22T09:58:02;7.60;99.90
47600;DHT22;33323;52.124;6.018;2023-12-22T10:00:31;7.70;99.90
47600;DHT22;33323;52.124;6.018;2023-12-22T10:02:59;7.80;99.90
47600;DHT22;33323;52.124;6.018;2023-12-22T10:05:27;7.80;99.90
47600;DHT22;33323;52.124;6.018;2023-12-22T10:07:56;7.80;99.90
47600;DHT22;33323;52.124;6.018;2023-12-22T10:10:24;7.80;99.90
47600;DHT22;33323;52.124;6.018;2023-12-22T10:12:52;7.90;99.90
47600;DHT22;33323;52.124;6.018;2023-12-22T10:15:21;7.90;99.90
47600;DHT22;33323;52.124;6.018;2023-12-22T10:17:54;7.80;99.90
47600;DHT22;33323;52.124;6.018;2023-12-22T10:20:22;7.80;99.90
47600;DHT22;33323;52.124;6.018;2023-12-22T10:22:49;7.80;99.90
47600;DHT22;33323;52.124;6.018;2023-12-22T10:25:20;7.80;99.90
47600;DHT22;33323;52.124;6.018;2023-12-22T10:27:47;7.80;99.90
47600;DHT22;33323;52.124;6.018;2023-12-22T10:30:15;7.80;99.90
47600;DHT22;33323;52.124;6.018;2023-12-22T10:32:43;7.70;99.90
47600;DHT22;33323;52.124;6.018;2023-12-22T10:35:10;7.70;99.90
47600;DHT22;33323;52.124;6.018;2023-12-22T10:37:38;7.70;99.90
47600;DHT22;33323;52.124;6.018;2023-12-22T10:40:06;7.70;99.90
47600;DHT22;33323;52.124;6.018;2023-12-22T10:42:35;7.60;99.90
47600;DHT22;33323;52.124;6.018;2023-12-22T10:45:03;7.60;99.90
47600;DHT22;33323;52.124;6.018;2023-12-22T10:47:33;7.70;99.90
47600;DHT22;33323;52.124;6.018;2023-12-22T10:50:04;7.80;99.90
47600;DHT22;33323;52.124;6.018;2023-12-22T10:52:51;7.80;99.90
47600;DHT22;33323;52.124;6.018;2023-12-22T10:55:19;7.80;99.90
47600;DHT22;33323;52.124;6.018;2023-12-22T10:57:46;7.80;99.90
47600;DHT22;33323;52.124;6.018;2023-12-22T11:00:20;7.80;99.90
47600;DHT22;33323;52.124;6.018;2023-12-22T11:02:48;7.80;99.90
47600;DHT22;33323;52.124;6.018;2023-12-22T11:05:18;8.00;99.90
47600;DHT22;33323;52.124;6.018;2023-12-22T11:07:49;8.00;99.90
47600;DHT22;33323;52.124;6.018;2023-12-22T11:10:21;8.10;99.90
47600;DHT22;33323;52.124;6.018;2023-12-22T11:12:48;8.10;99.90
47600;DHT22;33323;52.124;6.018;2023-12-22T11:15:18;8.20;99.90
47600;DHT22;33323;52.124;6.018;2023-12-22T11:17:46;8.20;99.90
47600;DHT22;33323;52.124;6.018;2023-12-22T11:20:17;8.20;99.90
47600;DHT22;33323;52.124;6.018;2023-12-22T11:22:45;8.30;99.90
47600;DHT22;33323;52.124;6.018;2023-12-22T11:25:14;8.30;99.90
47600;DHT22;33323;52.124;6.018;2023-12-22T11:27:43;8.30;99.90
47600;DHT22;33323;52.124;6.018;2023-12-22T11:30:15;8.20;99.90
47600;DHT22;33323;52.124;6.018;2023-12-22T11:32:44;8.10;99.90
47600;DHT22;33323;52.124;6.018;2023-12-22T11:35:12;8.20;99.90
47600;DHT22;33323;52.124;6.018;2023-12-22T11:37:42;8.20;99.90
47600;DHT22;33323;52.124;6.018;2023-12-22T11:40:10;8.20;99.90
47600;DHT22;33323;52.124;6.018;2023-12-22T11:42:41;8.30;99.90
47600;DHT22;33323;52.124;6.018;2023-12-22T11:45:14;8.40;99.90
47600;DHT22;33323;52.124;6.018;2023-12-22T11:47:43;8.30;99.90
47600;DHT22;33323;52.124;6.018;2023-12-22T11:50:11;8.40;99.90
47600;DHT22;33323;52.124;6.018;2023-12-22T11:52:39;8.50;99.90
47600;DHT22;33323;52.124;6.018;2023-12-22T11:55:07;8.40;99.90
47600;DHT22;33323;52.124;6.018;2023-12-22T11:57:36;8.40;99.90
47600;DHT22;33323;52.124;6.018;2023-12-22T12:02:56;8.50;99.90
47600;DHT22;33323;52.124;6.018;2023-12-22T12:06:16;8.50;99.90
47600;DHT22;33323;52.124;6.018;2023-12-22T12:08:53;8.60;99.90
47600;DHT22;33323;52.124;6.018;2023-12-22T12:11:22;8.60;99.90
47600;DHT22;33323;52.124;6.018;2023-12-22T12:13:50;8.70;99.90
47600;DHT22;33323;52.124;6.018;2023-12-22T12:16:22;8.70;99.90
47600;DHT22;33323;52.124;6.018;2023-12-22T12:18:50;8.70;99.90
47600;DHT22;33323;52.124;6.018;2023-12-22T12:21:20;8.70;99.90
47600;DHT22;33323;52.124;6.018;2023-12-22T12:23:48;8.70;99.90
47600;DHT22;33323;52.124;6.018;2023-12-22T12:26:16;8.70;99.90
47600;DHT22;33323;52.124;6.018;2023-12-22T12:28:45;8.70;99.90
47600;DHT22;33323;52.124;6.018;2023-12-22T12:31:13;8.70;99.90
47600;DHT22;33323;52.124;6.018;2023-12-22T12:33:40;8.70;99.90
47600;DHT22;33323;52.124;6.018;2023-12-22T12:36:07;8.70;99.90
47600;DHT22;33323;52.124;6.018;2023-12-22T12:41:42;8.70;99.90
47600;DHT22;33323;52.124;6.018;2023-12-22T12:44:13;8.70;99.90
47600;DHT22;33323;52.124;6.018;2023-12-22T12:46:41;8.70;99.90
47600;DHT22;33323;52.124;6.018;2023-12-22T12:49:10;8.70;99.90
47600;DHT22;33323;52.124;6.018;2023-12-22T12:51:44;8.60;99.90
47600;DHT22;33323;52.124;6.018;2023-12-22T12:54:13;8.60;99.90
47600;DHT22;33323;52.124;6.018;2023-12-22T12:56:45;8.60;99.90
47600;DHT22;33323;52.124;6.018;2023-12-22T12:59:15;8.50;99.90
47600;DHT22;33323;52.124;6.018;2023-12-22T13:01:45;8.50;99.90
47600;DHT22;33323;52.124;6.018;2023-12-22T13:04:14;8.60;99.90
47600;DHT22;33323;52.124;6.018;2023-12-22T13:06:49;8.60;99.90
47600;DHT22;33323;52.124;6.018;2023-12-22T13:09:17;8.50;99.90
47600;DHT22;33323;52.124;6.018;2023-12-22T13:11:46;8.50;99.90
47600;DHT22;33323;52.124;6.018;2023-12-22T13:14:24;8.50;99.90
47600;DHT22;33323;52.124;6.018;2023-12-22T13:16:56;8.40;99.90
47600;DHT22;33323;52.124;6.018;2023-12-22T13:19:25;8.50;99.90
47600;DHT22;33323;52.124;6.018;2023-12-22T13:21:54;8.50;99.90
47600;DHT22;33323;52.124;6.018;2023-12-22T13:24:22;8.70;99.90
47600;DHT22;33323;52.124;6.018;2023-12-22T13:27:00;8.70;99.90
47600;DHT22;33323;52.124;6.018;2023-12-22T13:29:28;8.70;99.90
47600;DHT22;33323;52.124;6.018;2023-12-22T13:31:56;8.80;99.90
47600;DHT22;33323;52.124;6.018;2023-12-22T13:34:24;8.80;99.90
47600;DHT22;33323;52.124;6.018;2023-12-22T13:39:41;8.90;99.90
47600;DHT22;33323;52.124;6.018;2023-12-22T13:42:19;8.90;99.90
47600;DHT22;33323;52.124;6.018;2023-12-22T13:44:49;9.00;99.90
47600;DHT22;33323;52.124;6.018;2023-12-22T13:47:19;9.00;99.90
47600;DHT22;33323;52.124;6.018;2023-12-22T13:49:47;9.00;99.90
47600;DHT22;33323;52.124;6.018;2023-12-22T13:52:28;8.90;99.90
47600;DHT22;33323;52.124;6.018;2023-12-22T13:54:59;8.90;99.90
47600;DHT22;33323;52.124;6.018;2023-12-22T13:57:28;9.00;99.90
47600;DHT22;33323;52.124;6.018;2023-12-22T13:59:55;8.90;99.90
47600;DHT22;33323;52.124;6.018;2023-12-22T14:02:23;9.00;99.90
47600;DHT22;33323;52.124;6.018;2023-12-22T14:04:50;9.10;99.90
47600;DHT22;33323;52.124;6.018;2023-12-22T14:07:19;9.10;99.90
47600;DHT22;33323;52.124;6.018;2023-12-22T14:09:46;9.10;99.90
47600;DHT22;33323;52.124;6.018;2023-12-22T14:12:13;9.10;99.90
47600;DHT22;33323;52.124;6.018;2023-12-22T14:14:50;9.10;99.90
47600;DHT22;33323;52.124;6.018;2023-12-22T14:17:17;9.10;99.90
47600;DHT22;33323;52.124;6.018;2023-12-22T14:19:46;9.10;99.90
47600;DHT22;33323;52.124;6.018;2023-12-22T14:22:16;9.00;99.90
47600;DHT22;33323;52.124;6.018;2023-12-22T14:24:43;9.00;99.90
47600;DHT22;33323;52.124;6.018;2023-12-22T14:27:11;9.00;99.90
47600;DHT22;33323;52.124;6.018;2023-12-22T14:29:38;9.00;99.90
47600;DHT22;33323;52.124;6.018;2023-12-22T14:32:07;9.10;99.90
47600;DHT22;33323;52.124;6.018;2023-12-22T14:34:35;9.10;99.90
47600;DHT22;33323;52.124;6.018;2023-12-22T14:37:04;9.10;99.90
47600;DHT22;33323;52.124;6.018;2023-12-22T14:39:31;9.10;99.90
47600;DHT22;33323;52.124;6.018;2023-12-22T14:42:00;9.10;99.90
47600;DHT22;33323;52.124;6.018;2023-12-22T14:44:29;9.00;99.90
47600;DHT22;33323;52.124;6.018;2023-12-22T14:46:57;9.00;99.90
47600;DHT22;33323;52.124;6.018;2023-12-22T14:50:13;9.00;99.90
47600;DHT22;33323;52.124;6.018;2023-12-22T14:52:41;8.90;99.90
47600;DHT22;33323;52.124;6.018;2023-12-22T14:57:57;8.90;99.90
47600;DHT22;33323;52.124;6.018;2023-12-22T15:00:25;8.90;99.90
47600;DHT22;33323;52.124;6.018;2023-12-22T15:02:52;8.90;99.90
47600;DHT22;33323;52.124;6.018;2023-12-22T15:05:19;8.90;99.90
47600;DHT22;33323;52.124;6.018;2023-12-22T15:07:47;8.80;99.90
47600;DHT22;33323;52.124;6.018;2023-12-22T15:10:15;8.90;99.90
47600;DHT22;33323;52.124;6.018;2023-12-22T15:12:42;8.90;99.90
47600;DHT22;33323;52.124;6.018;2023-12-22T15:15:10;8.90;99.90
47600;DHT22;33323;52.124;6.018;2023-12-22T15:18:21;9.00;99.90
47600;DHT22;33323;52.124;6.018;2023-12-22T15:20:48;8.90;99.90
47600;DHT22;33323;52.124;6.018;2023-12-22T15:23:18;8.90;99.90
47600;DHT22;33323;52.124;6.018;2023-12-22T15:25:45;8.90;99.90
47600;DHT22;33323;52.124;6.018;2023-12-22T15:28:12;8.90;99.90
47600;DHT22;33323;52.124;6.018;2023-12-22T15:30:39;8.80;99.90
47600;DHT22;33323;52.124;6.018;2023-12-22T15:33:06;8.80;99.90
47600;DHT22;33323;52.124;6.018;2023-12-22T15:35:33;8.90;99.90
47600;DHT22;33323;52.124;6.018;2023-12-22T15:38:00;8.90;99.90
47600;DHT22;33323;52.124;6.018;2023-12-22T15:40:28;8.90;99.90
47600;DHT22;33323;52.124;6.018;2023-12-22T15:42:56;9.00;99.90
47600;DHT22;33323;52.124;6.018;2023-12-22T15:45:23;9.00;99.90
47600;DHT22;33323;52.124;6.018;2023-12-22T15:47:50;9.00;99.90
47600;DHT22;33323;52.124;6.018;2023-12-22T15:50:17;9.10;99.90
47600;DHT22;33323;52.124;6.018;2023-12-22T15:52:44;9.10;99.90
47600;DHT22;33323;52.124;6.018;2023-12-22T15:55:45;9.10;99.90
47600;DHT22;33323;52.124;6.018;2023-12-22T15:58:13;9.10;99.90
47600;DHT22;33323;52.124;6.018;2023-12-22T16:00:40;9.20;99.90
47600;DHT22;33323;52.124;6.018;2023-12-22T16:03:07;9.20;99.90
47600;DHT22;33323;52.124;6.018;2023-12-22T16:05:34;9.30;99.90
47600;DHT22;33323;52.124;6.018;2023-12-22T16:08:01;9.20;99.90
47600;DHT22;33323;52.124;6.018;2023-12-22T16:10:29;9.30;99.90
47600;DHT22;33323;52.124;6.018;2023-12-22T16:12:56;9.20;99.90
47600;DHT22;33323;52.124;6.018;2023-12-22T16:15:23;9.30;99.90
47600;DHT22;33323;52.124;6.018;2023-12-22T16:17:50;9.30;99.90
47600;DHT22;33323;52.124;6.018;2023-12-22T16:20:18;9.40;99.90
47600;DHT22;33323;52.124;6.018;2023-12-22T16:22:45;9.40;99.90
47600;DHT22;33323;52.124;6.018;2023-12-22T16:25:12;9.30;99.90
47600;DHT22;33323;52.124;6.018;2023-12-22T16:27:40;9.30;99.90
47600;DHT22;33323;52.124;6.018;2023-12-22T16:30:07;9.20;99.90
47600;DHT22;33323;52.124;6.018;2023-12-22T16:32:35;8.80;99.90
47600;DHT22;33323;52.124;6.018;2023-12-22T16:35:03;8.50;99.90
47600;DHT22;33323;52.124;6.018;2023-12-22T16:37:31;8.20;99.90
47600;DHT22;33323;52.124;6.018;2023-12-22T16:39:58;8.00;99.90
47600;DHT22;33323;52.124;6.018;2023-12-22T16:42:25;7.90;99.90
47600;DHT22;33323;52.124;6.018;2023-12-22T16:44:53;7.90;99.90
47600;DHT22;33323;52.124;6.018;2023-12-22T16:47:22;7.80;99.90
47600;DHT22;33323;52.124;6.018;2023-12-22T16:49:52;7.80;99.90
47600;DHT22;33323;52.124;6.018;2023-12-22T16:52:19;7.70;99.90
47600;DHT22;33323;52.124;6.018;2023-12-22T16:54:46;7.80;99.90
47600;DHT22;33323;52.124;6.018;2023-12-22T16:57:13;7.70;99.90
47600;DHT22;33323;52.124;6.018;2023-12-22T16:59:40;7.70;99.90
47600;DHT22;33323;52.124;6.018;2023-12-22T17:02:07;7.70;99.90
47600;DHT22;33323;52.124;6.018;2023-12-22T17:04:54;7.70;99.90
47600;DHT22;33323;52.124;6.018;2023-12-22T17:07:22;7.70;99.90
47600;DHT22;33323;52.124;6.018;2023-12-22T17:09:49;7.70;99.90
47600;DHT22;33323;52.124;6.018;2023-12-22T17:12:17;7.60;99.90
47600;DHT22;33323;52.124;6.018;2023-12-22T17:14:45;7.60;99.90
47600;DHT22;33323;52.124;6.018;2023-12-22T17:17:13;7.60;99.90
47600;DHT22;33323;52.124;6.018;2023-12-22T17:19:41;7.60;99.90
47600;DHT22;33323;52.124;6.018;2023-12-22T17:22:08;7.60;99.90
47600;DHT22;33323;52.124;6.018;2023-12-22T17:24:36;7.50;99.90
47600;DHT22;33323;52.124;6.018;2023-12-22T17:27:10;7.50;99.90
47600;DHT22;33323;52.124;6.018;2023-12-22T17:32:46;7.50;99.90
47600;DHT22;33323;52.124;6.018;2023-12-22T17:35:15;7.50;99.90
47600;DHT22;33323;52.124;6.018;2023-12-22T17:56:34;7.40;99.90
47600;DHT22;33323;52.124;6.018;2023-12-22T17:59:02;7.40;99.90
47600;DHT22;33323;52.124;6.018;2023-12-22T18:01:29;7.40;99.90
47600;DHT22;33323;52.124;6.018;2023-12-22T18:03:58;7.40;99.90
47600;DHT22;33323;52.124;6.018;2023-12-22T18:06:25;7.40;99.90
47600;DHT22;33323;52.124;6.018;2023-12-22T18:09:14;7.40;99.90
47600;DHT22;33323;52.124;6.018;2023-12-22T18:11:42;7.40;99.90
47600;DHT22;33323;52.124;6.018;2023-12-22T18:14:10;7.40;99.90
47600;DHT22;33323;52.124;6.018;2023-12-22T18:16:39;7.40;99.90
47600;DHT22;33323;52.124;6.018;2023-12-22T18:19:07;7.40;99.90
47600;DHT22;33323;52.124;6.018;2023-12-22T18:21:35;7.40;99.90
47600;DHT22;33323;52.124;6.018;2023-12-22T18:24:02;7.30;99.90
47600;DHT22;33323;52.124;6.018;2023-12-22T18:26:30;7.30;99.90
47600;DHT22;33323;52.124;6.018;2023-12-22T18:28:57;7.30;99.90
47600;DHT22;33323;52.124;6.018;2023-12-22T18:31:25;7.30;99.90
47600;DHT22;33323;52.124;6.018;2023-12-22T18:36:48;7.30;99.90
47600;DHT22;33323;52.124;6.018;2023-12-22T18:42:36;7.30;99.90
47600;DHT22;33323;52.124;6.018;2023-12-22T19:07:36;7.30;99.90
47600;DHT22;33323;52.124;6.018;2023-12-22T19:10:04;7.20;99.90
47600;DHT22;33323;52.124;6.018;2023-12-22T19:33:03;7.00;99.90
47600;DHT22;33323;52.124;6.018;2023-12-22T19:35:32;6.90;99.90
47600;DHT22;33323;52.124;6.018;2023-12-22T19:37:59;7.00;99.90
47600;DHT22;33323;52.124;6.018;2023-12-22T19:40:26;7.00;99.90
47600;DHT22;33323;52.124;6.018;2023-12-22T19:42:54;6.90;99.90
47600;DHT22;33323;52.124;6.018;2023-12-22T20:23:39;6.60;99.90
47600;DHT22;33323;52.124;6.018;2023-12-22T20:59:01;6.30;99.90
47600;DHT22;33323;52.124;6.018;2023-12-22T21:01:28;6.30;99.90
47600;DHT22;33323;52.124;6.018;2023-12-22T21:03:56;6.30;99.90
47600;DHT22;33323;52.124;6.018;2023-12-22T21:06:23;6.20;99.90
47600;DHT22;33323;52.124;6.018;2023-12-22T21:21:24;6.30;99.90
47600;DHT22;33323;52.124;6.018;2023-12-22T21:23:51;6.40;99.90
47600;DHT22;33323;52.124;6.018;2023-12-22T21:45:33;6.20;99.90
47600;DHT22;33323;52.124;6.018;2023-12-22T22:44:54;6.30;99.90
47600;DHT22;33323;52.124;6.018;2023-12-22T22:47:21;6.20;99.90
47600;DHT22;33323;52.124;6.018;2023-12-22T22:59:18;6.00;99.90
47600;DHT22;33323;52.124;6.018;2023-12-22T23:04:41;5.90;99.90
47600;DHT22;33323;52.124;6.018;2023-12-22T23:07:08;5.90;99.90
47600;DHT22;33323;52.124;6.018;2023-12-22T23:09:35;5.90;99.90
47600;DHT22;33323;52.124;6.018;2023-12-22T23:12:02;5.90;99.90
47600;DHT22;33323;52.124;6.018;2023-12-22T23:14:30;5.90;99.90
47600;DHT22;33323;52.124;6.018;2023-12-22T23:16:57;6.00;99.90
47600;DHT22;33323;52.124;6.018;2023-12-22T23:23:13;6.10;99.90
47600;DHT22;33323;52.124;6.018;2023-12-22T23:35:04;6.20;99.90
47600;DHT22;33323;52.124;6.018;2023-12-22T23:37:32;6.20;99.90
47600;DHT22;33323;52.124;6.018;2023-12-22T23:46:19;6.20;99.90
47600;DHT22;33323;52.124;6.018;2023-12-22T23:48:46;6.20;99.90
